Time;durP1;ratioP1;P1;durP2;ratioP2;P2;SDS_P1;SDS_P2;PMS_P1;PMS_P2;Temp;Humidity;BMP_temperature;BMP_pressure;BME280_temperature;BME280_humidity;BME280_pressure;Samples;Min_cycle;Max_cycle;Signal;HPM_P1;HPM_P2
2023/07/21 00:02:08;;;;;;;;;;;;;;;27.06;54.84;99090.28;5033619;28;19920;-76
2023/07/21 00:04:34;;;;;;;;;;;;;;;27.03;54.25;99090.88;5033487;28;19916;-78
2023/07/21 00:07:00;;;;;;;;;;;;;;;26.99;54.97;99084.44;5033268;28;20428;-76
2023/07/21 00:09:25;;;;;;;;;;;;;;;26.96;54.35;99092.31;5033232;28;19913;-77
2023/07/21 00:11:50;;;;;;;;;;;;;;;26.94;54.35;99100.75;5033055;28;19909;-76
2023/07/21 00:14:16;;;;;;;;;;;;;;;26.92;54.38;99092.13;5033701;28;19908;-76
2023/07/21 00:16:42;;;;;;;;;;;;;;;26.90;55.36;99094.31;5033892;28;19962;-75
2023/07/21 00:19:07;;;;;;;;;;;;;;;26.92;53.97;99084.78;5033909;28;19909;-76
2023/07/21 00:21:34;;;;;;;;;;;;;;;26.92;54.87;99089.41;5033759;28;20294;-77
2023/07/21 00:24:01;;;;;;;;;;;;;;;26.93;54.01;99091.03;5015866;28;20344;-77
2023/07/21 00:26:26;;;;;;;;;;;;;;;26.93;53.99;99085.59;5033639;28;19913;-77
2023/07/21 00:28:51;;;;;;;;;;;;;;;26.95;54.28;99080.69;5015690;28;19913;-76
2023/07/21 00:31:16;;;;;;;;;;;;;;;26.99;54.64;99079.03;5015311;28;20314;-76
2023/07/21 00:33:42;;;;;;;;;;;;;;;27.00;54.91;99088.75;5032913;28;19912;-76
2023/07/21 00:36:08;;;;;;;;;;;;;;;27.04;54.55;99095.19;5032915;28;20434;-76
2023/07/21 00:38:34;;;;;;;;;;;;;;;27.07;54.74;99094.59;5032897;28;19917;-78
2023/07/21 00:40:59;;;;;;;;;;;;;;;27.08;54.85;99088.06;5032826;28;19948;-77
2023/07/21 00:43:25;;;;;;;;;;;;;;;27.08;54.17;99093.50;5032921;28;19909;-77
2023/07/21 00:45:51;;;;;;;;;;;;;;;27.09;54.61;99094.31;5032717;28;19916;-78
2023/07/21 00:48:17;;;;;;;;;;;;;;;27.13;52.90;99100.75;5032488;28;19913;-78
2023/07/21 00:50:51;;;;;;;;;;;;;;;27.03;55.59;99101.72;5032568;28;19983;-77
2023/07/21 00:53:18;;;;;;;;;;;;;;;26.88;54.44;99105.44;5032040;28;19999;-77
2023/07/21 00:55:45;;;;;;;;;;;;;;;26.77;53.84;99104.00;5032509;28;19951;-77
2023/07/21 00:58:10;;;;;;;;;;;;;;;26.70;54.76;99098.13;5014663;28;20378;-77
2023/07/21 01:00:40;;;;;;;;;;;;;;;26.67;54.73;99100.63;5014728;28;19909;-77
2023/07/21 01:03:06;;;;;;;;;;;;;;;26.57;54.69;99098.88;5032413;28;19916;-77
2023/07/21 01:05:33;;;;;;;;;;;;;;;26.49;55.24;99105.75;5032376;28;19938;-76
2023/07/21 01:07:59;;;;;;;;;;;;;;;26.45;54.54;99101.22;5032170;28;19967;-76
2023/07/21 01:10:25;;;;;;;;;;;;;;;26.42;54.90;99099.09;5032245;28;19916;-78
2023/07/21 01:12:51;;;;;;;;;;;;;;;26.33;55.66;99090.84;5032185;28;19916;-77
2023/07/21 01:15:17;;;;;;;;;;;;;;;26.28;54.63;99099.00;5032088;28;19913;-78
2023/07/21 01:17:42;;;;;;;;;;;;;;;26.22;55.04;99097.44;5032021;28;19952;-77
2023/07/21 01:20:09;;;;;;;;;;;;;;;26.12;55.45;99105.72;5031940;28;19909;-76
2023/07/21 01:22:35;;;;;;;;;;;;;;;26.13;55.39;99107.31;5031886;28;19913;-78
2023/07/21 01:25:07;;;;;;;;;;;;;;;26.06;55.79;99096.03;5032101;28;20317;-78
2023/07/21 01:27:36;;;;;;;;;;;;;;;25.98;55.50;99094.75;5032138;28;20398;-78
2023/07/21 01:30:02;;;;;;;;;;;;;;;26.02;55.02;99100.44;5032144;28;19932;-76
2023/07/21 01:32:28;;;;;;;;;;;;;;;26.01;55.17;99104.19;5032497;28;19916;-77
2023/07/21 01:34:55;;;;;;;;;;;;;;;25.98;56.15;99095.56;5035869;28;19909;-77
2023/07/21 01:37:21;;;;;;;;;;;;;;;26.00;54.86;99099.88;5035292;28;19909;-77
2023/07/21 01:39:47;;;;;;;;;;;;;;;25.97;54.53;99093.97;5032678;28;19916;-77
2023/07/21 01:42:12;;;;;;;;;;;;;;;25.93;55.09;99095.63;5032715;28;19908;-76
2023/07/21 01:44:38;;;;;;;;;;;;;;;25.87;55.59;99090.56;5014734;28;20023;-78
2023/07/21 01:47:04;;;;;;;;;;;;;;;25.83;55.53;99092.25;5031994;28;19963;-77
2023/07/21 01:49:30;;;;;;;;;;;;;;;25.81;55.00;99095.25;5014285;28;20058;-77
2023/07/21 01:51:57;;;;;;;;;;;;;;;25.78;54.40;99092.31;5031973;28;19916;-76
2023/07/21 01:54:54;;;;;;;;;;;;;;;25.69;55.04;99094.84;5032200;28;19909;-76
2023/07/21 01:57:32;;;;;;;;;;;;;;;25.65;55.36;99101.88;5010400;28;20301;-77
2023/07/21 01:59:59;;;;;;;;;;;;;;;25.66;55.76;99100.81;5035964;28;19974;-78
2023/07/21 02:02:24;;;;;;;;;;;;;;;25.62;56.33;99105.16;5015131;28;19909;-77
2023/07/21 02:04:50;;;;;;;;;;;;;;;25.65;55.60;99102.72;5031927;28;19923;-77
2023/07/21 02:07:16;;;;;;;;;;;;;;;25.69;55.64;99102.16;5036009;28;19909;-77
2023/07/21 02:09:41;;;;;;;;;;;;;;;25.67;55.15;99104.34;5036274;28;20381;-77
2023/07/21 02:12:06;;;;;;;;;;;;;;;25.59;55.29;99106.53;5018180;28;19959;-77
2023/07/21 02:14:32;;;;;;;;;;;;;;;25.53;54.92;99117.69;5035766;28;19925;-77
2023/07/21 02:16:57;;;;;;;;;;;;;;;25.48;56.09;99121.25;5035453;28;20366;-77
2023/07/21 02:19:22;;;;;;;;;;;;;;;25.50;56.36;99115.56;5017685;28;19909;-77
2023/07/21 02:21:47;;;;;;;;;;;;;;;25.53;56.52;99115.00;5035410;28;19909;-77
2023/07/21 02:24:13;;;;;;;;;;;;;;;25.51;54.97;99122.59;5017463;28;20356;-78
2023/07/21 02:26:38;;;;;;;;;;;;;;;25.44;55.75;99122.94;5035100;28;19912;-77
2023/07/21 02:29:03;;;;;;;;;;;;;;;25.39;56.45;99131.09;5017158;28;20279;-77
2023/07/21 02:31:29;;;;;;;;;;;;;;;25.39;55.65;99130.28;5017294;28;19920;-77
2023/07/21 02:33:54;;;;;;;;;;;;;;;25.38;56.24;99134.88;5035118;28;19905;-78
2023/07/21 02:36:19;;;;;;;;;;;;;;;25.40;55.59;99131.88;5035071;28;19934;-77
2023/07/21 02:38:44;;;;;;;;;;;;;;;25.37;56.72;99140.56;5035087;28;19908;-78
2023/07/21 02:41:10;;;;;;;;;;;;;;;25.34;56.61;99140.03;5035122;28;19943;-76
2023/07/21 02:43:35;;;;;;;;;;;;;;;25.32;57.10;99142.22;5017317;28;19963;-77
2023/07/21 02:46:00;;;;;;;;;;;;;;;25.34;55.91;99136.53;5034741;28;20004;-77
2023/07/21 02:48:26;;;;;;;;;;;;;;;25.36;55.67;99136.25;5034798;28;19959;-77
2023/07/21 02:50:51;;;;;;;;;;;;;;;25.34;55.67;99140.03;5017175;28;19913;-77
2023/07/21 02:53:17;;;;;;;;;;;;;;;25.36;56.20;99141.66;5034707;28;19940;-78
2023/07/21 02:55:43;;;;;;;;;;;;;;;25.35;56.04;99140.84;5034793;28;19916;-78
2023/07/21 02:58:09;;;;;;;;;;;;;;;25.34;56.61;99147.34;5034316;28;19927;-76
2023/07/21 03:00:35;;;;;;;;;;;;;;;25.35;55.40;99146.25;5033566;28;19913;-76
2023/07/21 03:03:00;;;;;;;;;;;;;;;25.37;55.65;99146.78;5033494;28;20396;-77
2023/07/21 03:05:27;;;;;;;;;;;;;;;25.34;56.07;99144.66;5033184;28;19909;-77
2023/07/21 03:07:52;;;;;;;;;;;;;;;25.37;55.59;99143.28;5033165;28;19920;-77
2023/07/21 03:10:17;;;;;;;;;;;;;;;25.38;55.69;99150.28;5033480;28;20317;-76
2023/07/21 03:12:42;;;;;;;;;;;;;;;25.38;55.25;99144.88;5015589;28;19916;-77
2023/07/21 03:15:08;;;;;;;;;;;;;;;25.32;56.29;99153.03;5033291;28;20420;-78
2023/07/21 03:17:33;;;;;;;;;;;;;;;25.28;56.15;99153.88;5033083;28;19912;-78
2023/07/21 03:19:59;;;;;;;;;;;;;;;25.27;55.48;99149.56;5033174;28;19913;-78
2023/07/21 03:22:24;;;;;;;;;;;;;;;25.27;55.04;99155.78;5033120;28;19905;-77
2023/07/21 03:24:49;;;;;;;;;;;;;;;25.26;55.23;99156.03;5032968;28;19999;-78
2023/07/21 03:27:15;;;;;;;;;;;;;;;25.25;55.90;99160.63;5032882;28;19963;-78
2023/07/21 03:29:40;;;;;;;;;;;;;;;25.25;56.15;99167.94;5032988;28;19939;-77
2023/07/21 03:32:06;;;;;;;;;;;;;;;25.29;55.50;99174.41;5033008;28;19962;-78
2023/07/21 03:34:31;;;;;;;;;;;;;;;25.31;55.64;99170.34;5015205;28;19909;-78
2023/07/21 03:36:57;;;;;;;;;;;;;;;25.39;55.13;99168.94;5032910;28;19909;-78
2023/07/21 03:39:23;;;;;;;;;;;;;;;25.45;55.70;99172.38;5033201;28;19909;-77
2023/07/21 03:41:48;;;;;;;;;;;;;;;25.46;55.74;99182.09;5032921;28;19909;-76
2023/07/21 03:44:14;;;;;;;;;;;;;;;25.45;55.11;99177.78;5032723;28;19909;-78
2023/07/21 03:46:39;;;;;;;;;;;;;;;25.46;54.78;99179.41;5032557;28;19924;-78
2023/07/21 03:49:04;;;;;;;;;;;;;;;25.49;55.20;99187.75;5032520;28;19920;-78
2023/07/21 03:51:29;;;;;;;;;;;;;;;25.49;55.69;99195.84;5032595;28;19908;-78
2023/07/21 03:53:58;;;;;;;;;;;;;;;25.48;55.65;99188.03;5014929;28;20390;-78
2023/07/21 03:56:23;;;;;;;;;;;;;;;25.42;56.48;99194.56;5032794;28;19909;-77
2023/07/21 03:58:49;;;;;;;;;;;;;;;25.41;55.89;99192.97;4994295;28;1122376;-77
2023/07/21 04:01:15;;;;;;;;;;;;;;;25.42;55.42;99203.50;5033597;28;20406;-78
2023/07/21 04:03:40;;;;;;;;;;;;;;;25.45;55.97;99202.94;5033586;28;20291;-79
2023/07/21 04:06:07;;;;;;;;;;;;;;;25.50;55.88;99197.47;5015796;28;19944;-78
2023/07/21 04:08:32;;;;;;;;;;;;;;;25.57;54.64;99205.25;5015577;28;20314;-78
2023/07/21 04:10:57;;;;;;;;;;;;;;;25.62;55.96;99213.31;5033487;28;19909;-77
2023/07/21 04:13:23;;;;;;;;;;;;;;;25.66;55.00;99217.09;5033567;28;20004;-78
2023/07/21 04:15:51;;;;;;;;;;;;;;;25.69;55.15;99213.81;5015629;28;19909;-78
2023/07/21 04:18:16;;;;;;;;;;;;;;;25.75;54.58;99220.78;5033219;28;19916;-77
2023/07/21 04:20:42;;;;;;;;;;;;;;;25.81;54.98;99218.84;5033275;28;19909;-77
2023/07/21 04:23:09;;;;;;;;;;;;;;;25.89;54.92;99220.91;5033237;28;20373;-78
2023/07/21 04:25:34;;;;;;;;;;;;;;;25.95;54.95;99226.00;5033185;28;20364;-78
2023/07/21 04:27:59;;;;;;;;;;;;;;;25.98;54.35;99232.72;5014711;28;19913;-77
2023/07/21 04:30:25;;;;;;;;;;;;;;;25.99;54.69;99226.22;5032790;28;20362;-77
2023/07/21 04:32:50;;;;;;;;;;;;;;;26.02;55.67;99224.88;5032916;28;19913;-78
2023/07/21 04:35:16;;;;;;;;;;;;;;;26.03;54.78;99223.78;5032904;28;19912;-78
2023/07/21 04:37:41;;;;;;;;;;;;;;;26.06;54.42;99226.72;5032752;28;19948;-76
2023/07/21 04:40:07;;;;;;;;;;;;;;;26.15;54.81;99227.69;5032969;28;19948;-77
2023/07/21 04:42:33;;;;;;;;;;;;;;;26.19;54.53;99227.94;5033221;28;19952;-78
2023/07/21 04:44:58;;;;;;;;;;;;;;;26.16;54.57;99232.03;5017983;28;19924;-78
2023/07/21 04:47:24;;;;;;;;;;;;;;;26.23;54.52;99232.47;5037780;28;19975;-77
2023/07/21 04:49:50;;;;;;;;;;;;;;;26.31;54.59;99231.03;5034299;28;19913;-77
2023/07/21 04:52:16;;;;;;;;;;;;;;;26.40;54.20;99229.34;5032959;28;19992;-76
2023/07/21 04:54:41;;;;;;;;;;;;;;;26.48;54.08;99238.72;5033258;28;20010;-77
2023/07/21 04:57:06;;;;;;;;;;;;;;;26.52;53.52;99235.13;5033336;28;19913;-77
2023/07/21 04:59:32;;;;;;;;;;;;;;;26.54;53.94;99230.25;5032636;28;19944;-75
2023/07/21 05:01:58;;;;;;;;;;;;;;;26.59;54.07;99235.59;5032637;28;19913;-76
2023/07/21 05:04:23;;;;;;;;;;;;;;;26.63;53.33;99233.09;5032928;28;19992;-76
2023/07/21 05:06:49;;;;;;;;;;;;;;;26.65;53.26;99235.53;5032806;28;19952;-76
2023/07/21 05:09:14;;;;;;;;;;;;;;;26.67;53.96;99238.75;5034040;28;20011;-77
2023/07/21 05:11:39;;;;;;;;;;;;;;;26.72;54.49;99246.78;5037315;28;20393;-78
2023/07/21 05:14:05;;;;;;;;;;;;;;;26.78;53.50;99249.19;5033266;28;19913;-78
2023/07/21 05:16:31;;;;;;;;;;;;;;;26.84;53.60;99258.03;5032521;28;19909;-77
2023/07/21 05:18:56;;;;;;;;;;;;;;;26.89;53.09;99266.91;5032579;28;19909;-76
2023/07/21 05:21:22;;;;;;;;;;;;;;;26.95;52.44;99259.50;5032431;28;19916;-77
2023/07/21 05:23:47;;;;;;;;;;;;;;;26.99;52.20;99265.19;5032276;28;20404;-78
2023/07/21 05:26:12;;;;;;;;;;;;;;;27.07;52.15;99262.63;5032366;28;19971;-78
2023/07/21 05:28:38;;;;;;;;;;;;;;;27.09;51.53;99254.19;5031981;28;19920;-78
2023/07/21 05:31:03;;;;;;;;;;;;;;;27.07;51.80;99259.91;5032125;28;19908;-78
2023/07/21 05:33:28;;;;;;;;;;;;;;;27.08;51.57;99260.72;5014307;28;19932;-76
2023/07/21 05:36:04;;;;;;;;;;;;;;;27.09;52.65;99257.72;5031991;28;19905;-77
2023/07/21 05:38:29;;;;;;;;;;;;;;;27.15;52.21;99259.25;5032165;28;19944;-75
2023/07/21 05:40:57;;;;;;;;;;;;;;;27.20;52.07;99266.50;5031789;28;20006;-77
2023/07/21 05:43:22;;;;;;;;;;;;;;;27.29;52.33;99266.63;5032069;28;20287;-79
2023/07/21 05:45:48;;;;;;;;;;;;;;;27.38;51.59;99265.66;5013983;28;19915;-77
2023/07/21 05:48:13;;;;;;;;;;;;;;;27.48;51.20;99267.41;5031603;28;20003;-78
2023/07/21 05:50:38;;;;;;;;;;;;;;;27.53;51.51;99265.44;5031438;28;19909;-77
2023/07/21 05:53:04;;;;;;;;;;;;;;;27.60;51.46;99270.50;5013557;28;20309;-76
2023/07/21 05:55:29;;;;;;;;;;;;;;;27.68;51.55;99271.75;5031498;28;19913;-78
2023/07/21 05:57:55;;;;;;;;;;;;;;;27.78;51.91;99268.88;5031300;28;19917;-78
2023/07/21 06:00:20;;;;;;;;;;;;;;;27.79;50.77;99274.00;5031760;28;19916;-76
2023/07/21 06:02:45;;;;;;;;;;;;;;;27.87;51.20;99280.66;5041850;28;20347;-78
2023/07/21 06:05:11;;;;;;;;;;;;;;;27.96;50.81;99288.91;5049821;28;19923;-78
2023/07/21 06:07:36;;;;;;;;;;;;;;;28.00;50.07;99292.63;5050020;28;20304;-78
2023/07/21 06:10:02;;;;;;;;;;;;;;;28.06;50.25;99284.09;5033824;28;19908;-78
2023/07/21 06:12:28;;;;;;;;;;;;;;;28.15;49.81;99278.78;5051547;28;19973;-77
2023/07/21 06:14:53;;;;;;;;;;;;;;;28.21;49.49;99283.00;5051391;28;20366;-78
2023/07/21 06:17:19;;;;;;;;;;;;;;;28.28;49.10;99286.19;5051312;28;19901;-78
2023/07/21 06:19:46;;;;;;;;;;;;;;;28.36;49.12;99280.06;5051408;28;19908;-78
2023/07/21 06:22:11;;;;;;;;;;;;;;;28.46;48.54;99282.56;5051477;28;19971;-76
2023/07/21 06:24:37;;;;;;;;;;;;;;;28.55;48.35;99287.31;5050196;28;20393;-75
2023/07/21 06:27:02;;;;;;;;;;;;;;;28.58;47.32;99278.53;5050021;28;19916;-76
2023/07/21 06:29:27;;;;;;;;;;;;;;;28.65;47.07;99284.38;5051277;28;19916;-76
2023/07/21 06:31:53;;;;;;;;;;;;;;;28.71;46.75;99285.88;5050576;28;20389;-78
2023/07/21 06:34:18;;;;;;;;;;;;;;;28.77;46.22;99285.47;5031623;28;20034;-77
2023/07/21 06:36:44;;;;;;;;;;;;;;;28.85;46.20;99283.16;5049673;28;20018;-78
2023/07/21 06:39:09;;;;;;;;;;;;;;;28.90;46.46;99273.00;5050433;28;20361;-78
2023/07/21 06:41:34;;;;;;;;;;;;;;;28.95;46.57;99281.03;5037304;28;19971;-77
2023/07/21 06:43:59;;;;;;;;;;;;;;;28.99;46.71;99284.78;5050973;28;20305;-77
2023/07/21 06:46:25;;;;;;;;;;;;;;;29.04;46.36;99281.94;5049154;28;19913;-78
2023/07/21 06:48:50;;;;;;;;;;;;;;;29.07;45.81;99284.06;5049279;28;20314;-77
2023/07/21 06:51:15;;;;;;;;;;;;;;;29.14;46.17;99288.25;5051208;28;19909;-77
2023/07/21 06:53:40;;;;;;;;;;;;;;;29.20;46.12;99289.75;5053312;28;19963;-76
2023/07/21 06:56:05;;;;;;;;;;;;;;;29.26;46.18;99275.72;5052409;28;19913;-78
2023/07/21 06:58:31;;;;;;;;;;;;;;;29.31;45.17;99283.78;5051559;28;20371;-77
2023/07/21 07:01:00;;;;;;;;;;;;;;;29.36;44.70;99293.72;5036692;28;19921;-77
2023/07/21 07:03:26;;;;;;;;;;;;;;;29.40;45.40;99295.53;5052628;28;20374;-77
2023/07/21 07:05:51;;;;;;;;;;;;;;;29.46;45.21;99295.44;5045308;28;19942;-77
2023/07/21 07:08:17;;;;;;;;;;;;;;;29.52;45.15;99297.72;5044428;28;20294;-77
2023/07/21 07:10:47;;;;;;;;;;;;;;;29.55;44.48;99291.66;5037840;28;20035;-77
2023/07/21 07:13:12;;;;;;;;;;;;;;;29.55;44.13;99294.38;5053372;28;20301;-76
2023/07/21 07:15:38;;;;;;;;;;;;;;;29.61;44.89;99295.88;5048205;28;19912;-78
2023/07/21 07:18:04;;;;;;;;;;;;;;;29.72;44.41;99291.78;5052396;28;19919;-78
2023/07/21 07:20:29;;;;;;;;;;;;;;;29.77;44.21;99290.06;5054000;28;19912;-78
2023/07/21 07:22:54;;;;;;;;;;;;;;;29.84;44.01;99293.16;5034253;28;19919;-78
2023/07/21 07:25:23;;;;;;;;;;;;;;;29.90;43.87;99289.19;5052036;28;19935;-76
2023/07/21 07:27:49;;;;;;;;;;;;;;;29.95;43.35;99289.84;5053716;28;19912;-77
2023/07/21 07:30:16;;;;;;;;;;;;;;;30.01;43.41;99288.63;5050475;28;19920;-77
2023/07/21 07:32:41;;;;;;;;;;;;;;;30.09;43.42;99291.72;5050409;28;20419;-77
2023/07/21 07:35:07;;;;;;;;;;;;;;;30.14;43.13;99286.94;5033385;28;19913;-77
2023/07/21 07:37:32;;;;;;;;;;;;;;;30.21;43.35;99283.75;5053441;28;19916;-78
2023/07/21 07:39:57;;;;;;;;;;;;;;;30.28;43.41;99286.84;5052781;28;19947;-76
2023/07/21 07:42:23;;;;;;;;;;;;;;;30.35;43.42;99288.00;5051315;28;20321;-77
2023/07/21 07:44:49;;;;;;;;;;;;;;;30.43;43.10;99291.88;5036165;28;20003;-77
2023/07/21 07:47:14;;;;;;;;;;;;;;;30.50;42.61;99294.97;5054072;28;20373;-78
2023/07/21 07:49:40;;;;;;;;;;;;;;;30.55;41.98;99294.81;5053909;28;19912;-76
2023/07/21 07:52:07;;;;;;;;;;;;;;;30.63;41.70;99299.53;5034089;28;20358;-76
2023/07/21 07:54:34;;;;;;;;;;;;;;;30.73;42.17;99290.25;5052398;28;20050;-77
2023/07/21 07:56:59;;;;;;;;;;;;;;;30.75;40.28;99296.19;5054222;28;20495;-77
2023/07/21 07:59:24;;;;;;;;;;;;;;;30.82;40.67;99285.59;5052562;28;19940;-77
2023/07/21 08:01:50;;;;;;;;;;;;;;;30.88;40.32;99297.16;5060894;28;19927;-76
2023/07/21 08:04:15;;;;;;;;;;;;;;;30.93;39.01;99302.47;5043656;28;19943;-77
2023/07/21 08:06:40;;;;;;;;;;;;;;;31.00;40.55;99305.53;5052468;28;20278;-78
2023/07/21 08:09:06;;;;;;;;;;;;;;;31.08;40.44;99303.94;5051178;28;19920;-76
2023/07/21 08:11:31;;;;;;;;;;;;;;;31.12;40.30;99305.69;5050906;28;19956;-75
2023/07/21 08:13:56;;;;;;;;;;;;;;;31.22;40.80;99299.19;5050483;28;19936;-77
2023/07/21 08:16:21;;;;;;;;;;;;;;;31.25;40.25;99304.81;5045185;28;19959;-77
2023/07/21 08:18:47;;;;;;;;;;;;;;;31.29;40.00;99311.22;5041590;28;19982;-77
2023/07/21 08:21:22;;;;;;;;;;;;;;;31.44;40.70;99309.13;5041037;28;19919;-78
2023/07/21 08:23:49;;;;;;;;;;;;;;;31.45;40.20;99306.09;5057826;28;19919;-79
2023/07/21 08:26:14;;;;;;;;;;;;;;;31.51;39.14;99307.53;5064799;28;19994;-78
2023/07/21 08:28:40;;;;;;;;;;;;;;;31.60;40.30;99297.41;5053030;28;19960;-78
2023/07/21 08:31:05;;;;;;;;;;;;;;;31.66;39.18;99308.16;5043289;28;19916;-77
2023/07/21 08:33:30;;;;;;;;;;;;;;;31.75;39.47;99301.56;5049202;28;20047;-77
2023/07/21 08:35:55;;;;;;;;;;;;;;;31.84;38.39;99305.09;5039693;28;19917;-77
2023/07/21 08:38:21;;;;;;;;;;;;;;;31.95;38.00;99302.03;5049676;28;20054;-77
2023/07/21 08:40:50;;;;;;;;;;;;;;;32.08;37.69;99295.59;5051077;28;19913;-78
2023/07/21 08:43:16;;;;;;;;;;;;;;;32.17;37.77;99296.34;5034749;28;19971;-77
2023/07/21 08:45:43;;;;;;;;;;;;;;;32.26;37.47;99304.53;5044052;28;19979;-75
2023/07/21 08:48:09;;;;;;;;;;;;;;;32.39;38.29;99303.53;5051890;28;19967;-77
2023/07/21 08:50:35;;;;;;;;;;;;;;;32.40;37.33;99313.31;5050846;28;19913;-78
2023/07/21 08:53:01;;;;;;;;;;;;;;;32.47;37.19;99321.81;5049801;28;20463;-77
2023/07/21 08:55:26;;;;;;;;;;;;;;;32.47;37.03;99316.34;5029053;28;21669;-77
2023/07/21 08:57:57;;;;;;;;;;;;;;;32.53;36.34;99306.84;5048567;28;19921;-77
2023/07/21 09:00:23;;;;;;;;;;;;;;;32.64;35.80;99304.53;5031446;28;19979;-79
2023/07/21 09:02:56;;;;;;;;;;;;;;;32.75;36.21;99305.78;5051279;28;20325;-77
2023/07/21 09:05:22;;;;;;;;;;;;;;;32.92;36.27;99308.44;5047824;28;19960;-78
2023/07/21 09:07:47;;;;;;;;;;;;;;;32.96;35.56;99308.56;5048994;28;20416;-78
2023/07/21 09:10:26;;;;;;;;;;;;;;;33.08;35.55;99309.44;5046971;28;19913;-77
2023/07/21 09:12:52;;;;;;;;;;;;;;;33.25;35.20;99311.25;5046590;28;19913;-78
2023/07/21 09:15:18;;;;;;;;;;;;;;;33.43;35.04;99309.19;5038517;28;20317;-78
2023/07/21 09:17:43;;;;;;;;;;;;;;;33.53;35.03;99308.03;5050994;28;19904;-77
2023/07/21 09:20:10;;;;;;;;;;;;;;;33.69;34.29;99311.72;5052318;28;19935;-77
2023/07/21 09:22:35;;;;;;;;;;;;;;;33.92;34.48;99312.16;5052363;28;19915;-77
2023/07/21 09:25:00;;;;;;;;;;;;;;;34.05;33.71;99313.78;5050994;28;19912;-76
2023/07/21 09:27:26;;;;;;;;;;;;;;;34.17;34.07;99307.53;5048691;28;20049;-78
2023/07/21 09:29:58;;;;;;;;;;;;;;;34.28;33.86;99311.47;5051392;28;20373;-77
2023/07/21 09:32:23;;;;;;;;;;;;;;;34.45;34.07;99310.47;5051938;28;19916;-77
2023/07/21 09:34:58;;;;;;;;;;;;;;;34.58;33.22;99310.13;5050426;28;19920;-77
2023/07/21 09:37:24;;;;;;;;;;;;;;;34.76;32.82;99301.66;5043542;28;19912;-78
2023/07/21 09:40:10;;;;;;;;;;;;;;;34.93;31.51;99305.00;5051321;28;19916;-79
2023/07/21 09:42:39;;;;;;;;;;;;;;;35.23;32.38;99297.28;5051032;28;20387;-78
2023/07/21 09:45:05;;;;;;;;;;;;;;;35.46;32.54;99294.81;5052022;28;19915;-78
2023/07/21 09:47:30;;;;;;;;;;;;;;;35.65;30.96;99278.47;5050959;28;19912;-78
2023/07/21 09:49:58;;;;;;;;;;;;;;;35.80;31.42;99282.44;5050912;28;20055;-78
2023/07/21 09:52:25;;;;;;;;;;;;;;;35.90;31.56;99283.88;5049748;28;19913;-77
2023/07/21 09:55:03;;;;;;;;;;;;;;;36.04;30.83;99288.94;5050566;28;19920;-77
2023/07/21 09:57:32;;;;;;;;;;;;;;;36.21;30.80;99285.84;5044804;28;19909;-77
2023/07/21 10:00:01;;;;;;;;;;;;;;;36.34;29.63;99287.38;5032174;28;20287;-77
2023/07/21 10:02:27;;;;;;;;;;;;;;;36.49;30.30;99280.28;5050820;28;19909;-76
2023/07/21 10:04:52;;;;;;;;;;;;;;;36.53;30.26;99276.47;5051767;28;20019;-77
2023/07/21 10:07:19;;;;;;;;;;;;;;;36.69;29.04;99275.63;5052008;28;20397;-78
2023/07/21 10:09:47;;;;;;;;;;;;;;;36.76;30.74;99278.56;5049841;28;19917;-78
2023/07/21 10:12:14;;;;;;;;;;;;;;;36.73;29.81;99279.28;5039976;28;20338;-78
2023/07/21 10:14:40;;;;;;;;;;;;;;;36.74;28.98;99276.16;5047925;28;20011;-79
2023/07/21 10:17:08;;;;;;;;;;;;;;;36.91;28.97;99280.50;5032153;28;20011;-78
2023/07/21 10:19:40;;;;;;;;;;;;;;;37.00;27.87;99277.53;5051956;28;19919;-77
2023/07/21 10:22:08;;;;;;;;;;;;;;;37.08;29.01;99277.31;5032099;28;19920;-76
2023/07/21 10:24:41;;;;;;;;;;;;;;;37.19;28.71;99292.13;5050547;28;19912;-78
2023/07/21 10:27:06;;;;;;;;;;;;;;;37.29;27.10;99270.72;5053349;28;19909;-76
2023/07/21 10:29:32;;;;;;;;;;;;;;;37.49;27.94;99269.53;5054991;28;20393;-77
2023/07/21 10:31:58;;;;;;;;;;;;;;;37.51;27.64;99270.78;5054930;28;20381;-77
2023/07/21 10:34:36;;;;;;;;;;;;;;;37.63;27.89;99264.31;5054837;28;19935;-77
2023/07/21 10:37:05;;;;;;;;;;;;;;;37.87;27.53;99260.44;5036647;28;19912;-77
2023/07/21 10:39:31;;;;;;;;;;;;;;;38.14;26.80;99264.06;5054231;28;19912;-77
2023/07/21 10:41:58;;;;;;;;;;;;;;;38.26;27.60;99263.09;5055221;28;19999;-78
2023/07/21 10:44:24;;;;;;;;;;;;;;;38.18;27.54;99264.94;5036356;28;19916;-77
2023/07/21 10:46:50;;;;;;;;;;;;;;;38.16;25.34;99264.50;5017491;28;19962;-77
2023/07/21 10:49:16;;;;;;;;;;;;;;;38.19;27.33;99254.72;5030746;28;19916;-77
2023/07/21 10:51:46;;;;;;;;;;;;;;;38.35;26.75;99258.13;5050995;28;19913;-77
2023/07/21 10:54:12;;;;;;;;;;;;;;;38.57;24.85;99249.00;5055427;28;20434;-76
2023/07/21 10:56:42;;;;;;;;;;;;;;;38.64;27.24;99251.88;5037158;28;19948;-76
2023/07/21 10:59:08;;;;;;;;;;;;;;;38.81;25.31;99249.78;5054333;28;19920;-78
2023/07/21 11:01:36;;;;;;;;;;;;;;;39.00;24.38;99244.09;5053180;28;19992;-78
2023/07/21 11:04:04;;;;;;;;;;;;;;;38.90;26.50;99242.78;5050458;28;19947;-78
2023/07/21 11:06:29;;;;;;;;;;;;;;;39.00;26.22;99244.91;5050889;28;19922;-78
2023/07/21 11:08:54;;;;;;;;;;;;;;;39.07;25.62;99233.19;5052921;28;20003;-77
2023/07/21 11:11:20;;;;;;;;;;;;;;;39.22;25.47;99242.41;5059754;28;19913;-76
2023/07/21 11:13:46;;;;;;;;;;;;;;;39.26;25.56;99241.28;5069347;28;19909;-77
2023/07/21 11:16:11;;;;;;;;;;;;;;;39.35;26.38;99243.75;5052781;28;19913;-78
2023/07/21 11:18:39;;;;;;;;;;;;;;;39.31;25.61;99229.91;5048249;28;19912;-76
2023/07/21 11:21:04;;;;;;;;;;;;;;;39.35;25.34;99229.94;5049065;28;20382;-77
2023/07/21 11:23:31;;;;;;;;;;;;;;;39.60;25.48;99224.72;5033617;28;20004;-78
2023/07/21 11:26:07;;;;;;;;;;;;;;;39.61;24.60;99223.56;5035793;28;20000;-78
2023/07/21 11:28:32;;;;;;;;;;;;;;;39.42;25.51;99227.28;5031846;28;20435;-77
2023/07/21 11:31:00;;;;;;;;;;;;;;;39.61;25.30;99218.81;5049883;28;19917;-77
2023/07/21 11:33:37;;;;;;;;;;;;;;;39.94;24.80;99208.88;5050119;28;20301;-76
2023/07/21 11:36:10;;;;;;;;;;;;;;;40.18;25.43;99213.81;5059348;28;19912;-79
2023/07/21 11:38:36;;;;;;;;;;;;;;;40.18;25.44;99218.56;5065535;28;21008;-78
2023/07/21 11:41:03;;;;;;;;;;;;;;;40.21;23.54;99209.50;5054318;28;19912;-78
2023/07/21 11:43:28;;;;;;;;;;;;;;;40.18;23.84;99213.81;5052079;28;20363;-77
2023/07/21 11:45:55;;;;;;;;;;;;;;;40.37;24.60;99206.47;5033859;28;19913;-77
2023/07/21 11:48:22;;;;;;;;;;;;;;;40.50;25.38;99207.72;5038447;28;19963;-78
2023/07/21 11:50:49;;;;;;;;;;;;;;;40.63;23.16;99203.44;5053288;28;19912;-77
2023/07/21 11:53:15;;;;;;;;;;;;;;;40.66;23.36;99197.13;5049740;28;19909;-78
2023/07/21 11:55:40;;;;;;;;;;;;;;;40.71;23.94;99190.44;5050439;28;19919;-77
2023/07/21 11:58:05;;;;;;;;;;;;;;;40.75;24.20;99192.03;5049038;28;19974;-77
2023/07/21 12:00:31;;;;;;;;;;;;;;;40.82;24.17;99188.53;5053393;28;19938;-79
2023/07/21 12:02:58;;;;;;;;;;;;;;;40.82;24.51;99188.53;5053535;28;19913;-77
2023/07/21 12:05:24;;;;;;;;;;;;;;;40.72;23.99;99187.28;5053926;28;19908;-77
2023/07/21 12:07:49;;;;;;;;;;;;;;;40.71;24.35;99188.47;5053908;28;20050;-77
2023/07/21 12:10:15;;;;;;;;;;;;;;;40.83;23.23;99184.59;5054108;28;19958;-78
2023/07/21 12:12:40;;;;;;;;;;;;;;;40.98;24.04;99185.47;5053320;28;19915;-76
2023/07/21 12:15:06;;;;;;;;;;;;;;;40.94;22.67;99175.16;5034867;28;19909;-78
2023/07/21 12:17:32;;;;;;;;;;;;;;;41.13;22.97;99181.53;5034076;28;19909;-77
2023/07/21 12:19:58;;;;;;;;;;;;;;;41.24;23.37;99179.63;5033916;28;19996;-78
2023/07/21 12:22:25;;;;;;;;;;;;;;;41.26;23.60;99178.03;5033541;28;19909;-77
2023/07/21 12:24:50;;;;;;;;;;;;;;;41.42;22.68;99174.91;5033707;28;20021;-78
2023/07/21 12:27:15;;;;;;;;;;;;;;;41.61;21.94;99170.16;5040198;28;19967;-78
2023/07/21 12:29:40;;;;;;;;;;;;;;;41.74;21.44;99168.63;5053056;28;20344;-77
2023/07/21 12:32:07;;;;;;;;;;;;;;;41.81;21.59;99176.97;5045996;28;19964;-77
2023/07/21 12:34:32;;;;;;;;;;;;;;;41.80;21.90;99178.94;5050498;28;19908;-77
2023/07/21 12:36:58;;;;;;;;;;;;;;;41.86;23.74;99179.34;5052026;28;19912;-77
2023/07/21 12:39:23;;;;;;;;;;;;;;;41.69;23.03;99174.59;5047097;28;19960;-77
2023/07/21 12:41:48;;;;;;;;;;;;;;;41.59;21.95;99178.88;5052067;28;19913;-76
2023/07/21 12:44:14;;;;;;;;;;;;;;;41.57;21.50;99175.72;5051201;28;20398;-78